Time;durP1;ratioP1;P1;durP2;ratioP2;P2;SDS_P1;SDS_P2;PMS_P1;PMS_P2;Temp;Humidity;BMP_temperature;BMP_pressure;BME280_temperature;BME280_humidity;BME280_pressure;Samples;Min_cycle;Max_cycle;Signal;HPM_P1;HPM_P2
2021/11/13 00:00:26;;;;;;;;;;;;;;;-1.89;86.47;97893.39;107997;1272;59770;-72
2021/11/13 00:03:13;;;;;;;;;;;;;;;-1.89;86.66;97894.76;108084;1272;59718;-69
2021/11/13 00:05:42;;;;;;;;;;;;;;;-1.86;86.49;97894.02;108016;1274;71818;-70
2021/11/13 00:08:11;;;;;;;;;;;;;;;-1.84;86.58;97895.52;108132;1272;68254;-71
2021/11/13 00:10:40;;;;;;;;;;;;;;;-1.91;87.71;97891.02;108103;1269;69473;-70
2021/11/13 00:13:10;;;;;;;;;;;;;;;-1.90;87.62;97892.89;108058;1271;59773;-70
2021/11/13 00:15:40;;;;;;;;;;;;;;;-1.93;87.78;97891.22;108008;1272;59747;-71
2021/11/13 00:18:10;;;;;;;;;;;;;;;-1.94;87.64;97890.04;108177;1272;71935;-70
2021/11/13 00:20:39;;;;;;;;;;;;;;;-1.91;87.05;97888.63;108049;1271;68646;-71
2021/11/13 00:23:08;;;;;;;;;;;;;;;-1.90;87.04;97887.93;108089;1272;69466;-71
2021/11/13 00:25:38;;;;;;;;;;;;;;;-1.92;87.76;97887.27;108176;1270;59750;-69
2021/11/13 00:28:07;;;;;;;;;;;;;;;-1.92;87.60;97886.77;108098;1272;59713;-72
2021/11/13 00:30:38;;;;;;;;;;;;;;;-1.89;86.72;97885.36;108097;1272;71583;-72
2021/11/13 00:33:07;;;;;;;;;;;;;;;-1.93;87.40;97886.44;108173;1272;68008;-68
2021/11/13 00:35:36;;;;;;;;;;;;;;;-1.95;87.87;97887.48;108106;1271;68645;-68
2021/11/13 00:38:05;;;;;;;;;;;;;;;-2.04;88.24;97889.86;108101;1272;59917;-68
2021/11/13 00:40:35;;;;;;;;;;;;;;;-2.07;88.92;97891.11;107993;1272;59662;-70
2021/11/13 00:43:04;;;;;;;;;;;;;;;-2.07;89.08;97894.00;108061;1272;71618;-69
2021/11/13 00:45:33;;;;;;;;;;;;;;;-2.10;89.26;97892.16;108063;1273;67864;-70
2021/11/13 00:48:03;;;;;;;;;;;;;;;-2.09;88.91;97888.39;108076;1272;69414;-71
2021/11/13 00:50:32;;;;;;;;;;;;;;;-2.08;88.61;97889.56;108092;1270;59719;-70
2021/11/13 00:53:01;;;;;;;;;;;;;;;-2.09;88.32;97891.28;107997;1271;59692;-69
2021/11/13 00:55:31;;;;;;;;;;;;;;;-2.08;88.29;97892.82;108137;1272;70884;-68
2021/11/13 00:58:01;;;;;;;;;;;;;;;-2.11;88.70;97889.11;108235;1272;68651;-69
2021/11/13 01:00:31;;;;;;;;;;;;;;;-2.10;87.64;97886.36;108082;1271;68382;-70
2021/11/13 01:03:08;;;;;;;;;;;;;;;-2.17;87.59;97877.91;108095;1272;59703;-69
2021/11/13 01:05:37;;;;;;;;;;;;;;;-2.18;87.17;97877.41;108171;1271;59782;-69
2021/11/13 01:08:08;;;;;;;;;;;;;;;-2.22;87.33;97873.05;108218;1272;70794;-69
2021/11/13 01:10:38;;;;;;;;;;;;;;;-2.22;87.34;97871.67;108129;1271;68774;-68
2021/11/13 01:13:08;;;;;;;;;;;;;;;-2.25;87.48;97872.23;108140;1272;69449;-69
2021/11/13 01:15:37;;;;;;;;;;;;;;;-2.24;87.39;97868.81;108088;1272;59738;-71
2021/11/13 01:18:06;;;;;;;;;;;;;;;-2.25;87.06;97870.35;108120;1272;59685;-71
2021/11/13 01:20:35;;;;;;;;;;;;;;;-2.29;87.80;97870.77;108128;1272;70840;-71
2021/11/13 01:23:05;;;;;;;;;;;;;;;-2.28;87.31;97864.08;108081;1272;68426;-70
2021/11/13 01:25:34;;;;;;;;;;;;;;;-2.28;87.12;97859.83;108084;1272;68714;-70
2021/11/13 01:28:03;;;;;;;;;;;;;;;-2.29;87.21;97860.34;108081;1272;59687;-70
2021/11/13 01:30:33;;;;;;;;;;;;;;;-2.30;87.49;97855.74;108093;1272;59690;-71
2021/11/13 01:33:02;;;;;;;;;;;;;;;-2.30;87.06;97854.05;107909;1272;71418;-69
2021/11/13 01:35:31;;;;;;;;;;;;;;;-2.30;86.57;97849.42;108119;1272;68865;-70
2021/11/13 01:38:00;;;;;;;;;;;;;;;-2.37;86.95;97848.86;108091;1272;68607;-70
2021/11/13 01:40:30;;;;;;;;;;;;;;;-2.37;86.78;97846.13;108077;1272;59700;-70
2021/11/13 01:42:59;;;;;;;;;;;;;;;-2.39;86.73;97844.96;108139;1272;59697;-71
2021/11/13 01:45:28;;;;;;;;;;;;;;;-2.41;86.57;97843.77;108109;1272;71611;-70
2021/11/13 01:47:57;;;;;;;;;;;;;;;-2.43;86.56;97846.55;108090;1272;68503;-70
2021/11/13 01:50:32;;;;;;;;;;;;;;;-2.42;86.48;97843.10;107988;1272;68449;-73
2021/11/13 01:53:04;;;;;;;;;;;;;;;-2.44;86.44;97842.63;108066;1272;59662;-73
2021/11/13 01:55:36;;;;;;;;;;;;;;;-2.48;86.47;97840.63;108130;1272;59766;-72
2021/11/13 01:58:10;;;;;;;;;;;;;;;-2.57;87.69;97836.50;108150;1273;71405;-72
2021/11/13 02:00:47;;;;;;;;;;;;;;;-2.63;89.09;97841.02;108047;1273;68175;-70
2021/11/13 02:03:17;;;;;;;;;;;;;;;-2.61;88.69;97842.86;108000;1275;69362;-71
2021/11/13 02:05:47;;;;;;;;;;;;;;;-2.59;87.53;97843.19;108093;1271;59779;-70
2021/11/13 02:08:17;;;;;;;;;;;;;;;-2.61;87.27;97844.56;108034;1271;59777;-72
2021/11/13 02:10:47;;;;;;;;;;;;;;;-2.64;87.97;97842.23;108136;1272;71465;-71
2021/11/13 02:13:15;;;;;;;;;;;;;;;-2.64;88.09;97838.80;108113;1272;68951;-73
2021/11/13 02:15:44;;;;;;;;;;;;;;;-2.62;87.48;97836.73;108092;1272;69488;-70
2021/11/13 02:18:14;;;;;;;;;;;;;;;-2.61;87.57;97840.48;107992;1272;59786;-72
2021/11/13 02:20:43;;;;;;;;;;;;;;;-2.59;87.28;97836.86;108120;1271;59757;-71
2021/11/13 02:23:15;;;;;;;;;;;;;;;-2.58;86.93;97840.77;108004;1272;71398;-71
2021/11/13 02:25:45;;;;;;;;;;;;;;;-2.61;87.05;97838.09;108061;1271;68321;-70
2021/11/13 02:28:15;;;;;;;;;;;;;;;-2.64;86.89;97838.13;108081;1272;67785;-71
2021/11/13 02:30:46;;;;;;;;;;;;;;;-2.69;86.80;97842.97;108162;1270;59750;-70
2021/11/13 02:33:15;;;;;;;;;;;;;;;-2.76;87.14;97843.58;107993;1272;59735;-71
2021/11/13 02:35:46;;;;;;;;;;;;;;;-2.83;87.71;97845.20;108134;1272;71575;-70
2021/11/13 02:38:19;;;;;;;;;;;;;;;-2.85;87.31;97843.68;108288;1272;68623;-70
2021/11/13 02:40:50;;;;;;;;;;;;;;;-2.87;87.27;97836.89;108124;1271;68665;-70
2021/11/13 02:43:20;;;;;;;;;;;;;;;-2.87;88.28;97835.02;108070;1272;59745;-70
2021/11/13 02:45:50;;;;;;;;;;;;;;;-2.86;87.69;97830.23;108172;1272;59655;-68
2021/11/13 02:48:21;;;;;;;;;;;;;;;-2.85;87.32;97827.14;108096;1272;71370;-70
2021/11/13 02:50:51;;;;;;;;;;;;;;;-2.84;86.95;97828.84;108253;1269;67643;-72
2021/11/13 02:53:23;;;;;;;;;;;;;;;-2.89;87.07;97832.82;108029;1271;68436;-69
2021/11/13 02:55:53;;;;;;;;;;;;;;;-2.96;87.64;97835.99;108117;1269;59763;-73
2021/11/13 02:58:23;;;;;;;;;;;;;;;-3.03;87.61;97841.02;108341;1269;59779;-69
2021/11/13 03:00:55;;;;;;;;;;;;;;;-3.07;87.46;97836.98;108168;1269;70607;-71
2021/11/13 03:03:24;;;;;;;;;;;;;;;-3.19;88.66;97837.94;108029;1272;67758;-69
2021/11/13 03:05:56;;;;;;;;;;;;;;;-3.19;88.83;97836.75;108116;1272;69464;-68
2021/11/13 03:08:27;;;;;;;;;;;;;;;-3.18;88.71;97842.56;108142;1266;59745;-70
2021/11/13 03:10:59;;;;;;;;;;;;;;;-3.15;88.04;97840.80;108117;1271;59698;-71
2021/11/13 03:13:30;;;;;;;;;;;;;;;-3.14;87.63;97846.59;108162;1272;71593;-69
2021/11/13 03:16:01;;;;;;;;;;;;;;;-3.17;87.84;97849.86;108113;1272;67818;-69
2021/11/13 03:18:32;;;;;;;;;;;;;;;-3.28;89.28;97852.72;108220;1268;69412;-70
2021/11/13 03:21:05;;;;;;;;;;;;;;;-3.28;89.47;97851.52;108312;1269;59684;-68
2021/11/13 03:23:41;;;;;;;;;;;;;;;-3.28;89.22;97851.52;108280;1269;59732;-69
2021/11/13 03:26:29;;;;;;;;;;;;;;;-3.25;88.79;97846.88;108302;1269;71570;-70
2021/11/13 03:29:01;;;;;;;;;;;;;;;-3.23;88.34;97851.13;108331;1268;68072;-71
2021/11/13 03:31:30;;;;;;;;;;;;;;;-3.23;88.39;97854.20;108070;1269;68807;-72
2021/11/13 03:34:05;;;;;;;;;;;;;;;-3.23;88.61;97855.73;108119;1272;59709;-71
2021/11/13 03:36:35;;;;;;;;;;;;;;;-3.23;87.96;97855.05;108138;1269;59793;-69
2021/11/13 03:39:07;;;;;;;;;;;;;;;-3.25;88.05;97853.55;108139;1269;71479;-68
2021/11/13 03:41:38;;;;;;;;;;;;;;;-3.31;88.52;97854.80;108332;1269;67655;-70
2021/11/13 03:44:07;;;;;;;;;;;;;;;-3.32;88.11;97854.80;108132;1269;68623;-71
2021/11/13 03:46:37;;;;;;;;;;;;;;;-3.30;87.83;97853.60;108170;1272;59766;-69
2021/11/13 03:49:07;;;;;;;;;;;;;;;-3.25;87.61;97852.67;108071;1271;59726;-70
2021/11/13 03:51:37;;;;;;;;;;;;;;;-3.25;87.88;97848.58;108295;1269;70590;-70
2021/11/13 03:54:08;;;;;;;;;;;;;;;-3.26;87.92;97849.12;108062;1271;68280;-73
2021/11/13 03:56:40;;;;;;;;;;;;;;;-3.24;87.44;97847.57;108100;1272;67452;-70
2021/11/13 03:59:08;;;;;;;;;;;;;;;-3.23;87.25;97844.48;108089;1272;59681;-70
2021/11/13 04:01:37;;;;;;;;;;;;;;;-3.21;87.36;97843.08;107998;1273;59748;-70
2021/11/13 04:04:06;;;;;;;;;;;;;;;-3.19;87.57;97837.27;108066;1271;71609;-70
2021/11/13 04:06:35;;;;;;;;;;;;;;;-3.20;87.67;97835.58;108112;1272;68621;-69
2021/11/13 04:09:05;;;;;;;;;;;;;;;-3.18;87.50;97833.70;108264;1269;69316;-68
2021/11/13 04:11:35;;;;;;;;;;;;;;;-3.20;88.00;97827.90;108135;1269;59750;-70
2021/11/13 04:14:06;;;;;;;;;;;;;;;-3.21;88.29;97835.58;108252;1269;59780;-71
2021/11/13 04:16:40;;;;;;;;;;;;;;;-3.20;87.98;97836.77;108153;1272;70568;-69
2021/11/13 04:19:12;;;;;;;;;;;;;;;-3.18;87.56;97836.92;108337;1269;68453;-71
2021/11/13 04:21:41;;;;;;;;;;;;;;;-3.17;87.22;97838.77;108348;1269;68828;-74
2021/11/13 04:24:10;;;;;;;;;;;;;;;-3.16;87.24;97841.67;108152;1269;59757;-69
2021/11/13 04:26:39;;;;;;;;;;;;;;;-3.15;87.01;97845.39;108309;1269;59748;-72
2021/11/13 04:29:09;;;;;;;;;;;;;;;-3.16;86.72;97848.13;108325;1269;71547;-70
2021/11/13 04:31:38;;;;;;;;;;;;;;;-3.17;86.55;97840.66;108212;1269;68588;-68
2021/11/13 04:34:13;;;;;;;;;;;;;;;-3.19;86.48;97840.35;108144;1270;67683;-69
2021/11/13 04:36:45;;;;;;;;;;;;;;;-3.21;86.60;97840.52;108117;1272;59697;-69
2021/11/13 04:39:14;;;;;;;;;;;;;;;-3.20;86.56;97836.09;108172;1272;59621;-71
2021/11/13 04:41:43;;;;;;;;;;;;;;;-3.20;86.47;97834.89;108160;1269;71516;-68
2021/11/13 04:44:12;;;;;;;;;;;;;;;-3.21;86.44;97834.23;108361;1269;68557;-69
2021/11/13 04:46:41;;;;;;;;;;;;;;;-3.23;86.51;97836.48;108343;1269;68559;-69
2021/11/13 04:49:10;;;;;;;;;;;;;;;-3.23;86.68;97836.48;108327;1269;59732;-69
2021/11/13 04:51:42;;;;;;;;;;;;;;;-3.23;86.81;97839.03;108332;1269;59703;-69
2021/11/13 04:54:11;;;;;;;;;;;;;;;-3.22;86.60;97844.48;108322;1272;70653;-70
2021/11/13 04:56:40;;;;;;;;;;;;;;;-3.24;86.32;97849.60;107921;1269;580245;-70
2021/11/13 04:59:09;;;;;;;;;;;;;;;-3.27;86.17;97846.58;108307;1269;68606;-71
2021/11/13 05:01:39;;;;;;;;;;;;;;;-3.27;86.26;97854.77;108140;1272;59721;-70
2021/11/13 05:04:08;;;;;;;;;;;;;;;-3.28;86.39;97856.98;108105;1272;59776;-70
2021/11/13 05:06:37;;;;;;;;;;;;;;;-3.26;86.24;97854.75;108315;1269;71568;-71
2021/11/13 05:09:06;;;;;;;;;;;;;;;-3.30;86.48;97852.58;108102;1272;68608;-70
2021/11/13 05:11:36;;;;;;;;;;;;;;;-3.35;86.84;97851.25;108394;1269;69376;-71
2021/11/13 05:14:05;;;;;;;;;;;;;;;-3.37;86.86;97852.98;108163;1269;59684;-73
2021/11/13 05:16:34;;;;;;;;;;;;;;;-3.40;86.85;97856.42;108307;1269;59758;-69
2021/11/13 05:19:03;;;;;;;;;;;;;;;-3.42;87.01;97858.31;108167;1270;71677;-73
2021/11/13 05:21:32;;;;;;;;;;;;;;;-3.44;86.97;97861.06;108162;1271;68726;-69
2021/11/13 05:24:01;;;;;;;;;;;;;;;-3.46;86.97;97862.97;108125;1272;69455;-73
2021/11/13 05:26:30;;;;;;;;;;;;;;;-3.47;86.85;97862.28;108112;1272;59706;-69
2021/11/13 05:29:01;;;;;;;;;;;;;;;-3.48;86.56;97865.36;108189;1272;59694;-71
2021/11/13 05:31:30;;;;;;;;;;;;;;;-3.55;86.40;97861.34;108177;1272;71529;-70
2021/11/13 05:33:59;;;;;;;;;;;;;;;-3.60;86.71;97859.69;108146;1272;67848;-69
2021/11/13 05:36:28;;;;;;;;;;;;;;;-3.64;86.84;97864.84;108066;1272;69007;-72
2021/11/13 05:38:57;;;;;;;;;;;;;;;-3.65;86.76;97866.39;108278;1269;59761;-68
2021/11/13 05:41:26;;;;;;;;;;;;;;;-3.65;86.65;97873.36;108142;1272;59732;-72
2021/11/13 05:43:59;;;;;;;;;;;;;;;-3.67;86.49;97872.52;108159;1272;71451;-69
2021/11/13 05:46:32;;;;;;;;;;;;;;;-3.69;86.51;97873.75;108149;1271;68923;-69
2021/11/13 05:49:01;;;;;;;;;;;;;;;-3.67;86.63;97873.38;108100;1272;68712;-71
2021/11/13 05:51:31;;;;;;;;;;;;;;;-3.68;86.73;97878.50;108142;1269;60084;-70
2021/11/13 05:53:59;;;;;;;;;;;;;;;-3.68;86.45;97877.98;108139;1269;59782;-71
2021/11/13 05:56:32;;;;;;;;;;;;;;;-3.64;86.37;97879.99;108095;1272;71595;-69
2021/11/13 05:59:01;;;;;;;;;;;;;;;-3.61;86.40;97880.98;108271;1269;68544;-70
2021/11/13 06:01:31;;;;;;;;;;;;;;;-3.57;86.22;97880.61;108102;1272;68685;-72
2021/11/13 06:04:00;;;;;;;;;;;;;;;-3.54;86.00;97884.17;108130;1272;59712;-70
2021/11/13 06:06:29;;;;;;;;;;;;;;;-3.51;85.86;97883.45;108146;1272;59767;-72
2021/11/13 06:08:58;;;;;;;;;;;;;;;-3.48;85.96;97882.91;108088;1272;71536;-70
2021/11/13 06:11:27;;;;;;;;;;;;;;;-3.45;85.87;97881.69;108124;1272;68658;-69
2021/11/13 06:13:56;;;;;;;;;;;;;;;-3.43;85.68;97877.92;108126;1271;69682;-72
2021/11/13 06:16:25;;;;;;;;;;;;;;;-3.40;85.63;97878.75;108257;1269;59699;-70
2021/11/13 06:18:54;;;;;;;;;;;;;;;-3.33;85.65;97880.73;108127;1272;59712;-72
2021/11/13 06:21:22;;;;;;;;;;;;;;;-3.25;85.64;97886.61;108087;1272;72225;-69
2021/11/13 06:23:51;;;;;;;;;;;;;;;-3.14;85.67;97881.71;108159;1272;68451;-72
2021/11/13 06:26:20;;;;;;;;;;;;;;;-3.02;85.80;97880.40;108174;1269;69462;-71
2021/11/13 06:28:48;;;;;;;;;;;;;;;-2.93;85.89;97874.84;108276;1269;59755;-70
2021/11/13 06:31:18;;;;;;;;;;;;;;;-2.84;85.76;97872.32;108250;1269;59636;-73
2021/11/13 06:33:47;;;;;;;;;;;;;;;-2.72;85.10;97875.09;108107;1271;72241;-73
2021/11/13 06:36:16;;;;;;;;;;;;;;;-2.54;85.19;97870.58;108087;1272;67664;-69
2021/11/13 06:38:45;;;;;;;;;;;;;;;-2.14;85.71;97873.42;108111;1272;69478;-72
2021/11/13 06:41:14;;;;;;;;;;;;;;;-1.61;85.94;97869.69;108104;1272;59689;-69
2021/11/13 06:43:43;;;;;;;;;;;;;;;-1.02;85.50;97871.52;108159;1269;59754;-70
2021/11/13 06:46:11;;;;;;;;;;;;;;;-0.38;84.27;97869.18;108088;1272;70619;-71
2021/11/13 06:48:40;;;;;;;;;;;;;;;0.28;83.03;97872.30;108064;1271;69387;-71
2021/11/13 06:51:09;;;;;;;;;;;;;;;0.84;79.77;97870.33;108184;1272;69455;-72
2021/11/13 06:53:44;;;;;;;;;;;;;;;1.41;78.83;97860.53;108121;1272;59845;-72
2021/11/13 06:56:15;;;;;;;;;;;;;;;1.85;72.61;97862.81;108104;1271;59722;-70
2021/11/13 06:58:47;;;;;;;;;;;;;;;2.41;76.67;97858.27;108165;1272;72107;-73
2021/11/13 07:01:16;;;;;;;;;;;;;;;3.00;72.83;97859.69;108158;1270;68106;-69
2021/11/13 07:03:45;;;;;;;;;;;;;;;3.60;75.83;97855.30;108182;1269;68437;-75
2021/11/13 07:06:16;;;;;;;;;;;;;;;4.14;69.19;97858.36;108132;1269;59710;-70
2021/11/13 07:08:45;;;;;;;;;;;;;;;4.58;62.35;97853.81;108054;1272;59713;-71
2021/11/13 07:11:14;;;;;;;;;;;;;;;4.91;68.40;97852.40;108128;1272;71032;-73
2021/11/13 07:13:42;;;;;;;;;;;;;;;5.15;58.76;97849.45;108297;1269;67834;-71
2021/11/13 07:16:11;;;;;;;;;;;;;;;4.34;57.48;97853.38;108047;1272;69474;-73
2021/11/13 07:18:40;;;;;;;;;;;;;;;4.41;59.81;97853.65;108143;1269;59686;-72
2021/11/13 07:21:09;;;;;;;;;;;;;;;3.81;59.47;97855.35;108219;1269;59712;-73
2021/11/13 07:23:38;;;;;;;;;;;;;;;3.99;59.98;97855.83;108088;1272;70624;-73
2021/11/13 07:26:10;;;;;;;;;;;;;;;4.37;60.11;97855.85;108057;1273;68658;-72
2021/11/13 07:28:44;;;;;;;;;;;;;;;4.62;60.05;97857.45;108105;1272;69576;-72
2021/11/13 07:31:18;;;;;;;;;;;;;;;4.99;59.92;97851.55;108086;1272;60216;-74
2021/11/13 07:33:50;;;;;;;;;;;;;;;5.32;58.26;97848.35;108163;1272;59738;-72
2021/11/13 07:36:18;;;;;;;;;;;;;;;6.02;60.87;97850.83;108084;1271;71579;-73
2021/11/13 07:38:51;;;;;;;;;;;;;;;6.81;59.21;97847.85;108352;1269;68790;-71
2021/11/13 07:41:24;;;;;;;;;;;;;;;7.49;59.60;97847.77;108311;1269;69529;-70
2021/11/13 07:43:53;;;;;;;;;;;;;;;8.05;55.16;97848.02;108077;1271;59672;-73
2021/11/13 07:46:22;;;;;;;;;;;;;;;7.51;50.74;97847.15;108194;1272;59752;-72
2021/11/13 07:48:52;;;;;;;;;;;;;;;7.03;52.73;97844.48;107997;1272;72096;-73
2021/11/13 07:51:24;;;;;;;;;;;;;;;7.54;53.23;97840.61;108142;1271;68623;-72
2021/11/13 07:53:52;;;;;;;;;;;;;;;7.74;51.64;97844.90;108060;1272;69549;-72
2021/11/13 07:56:21;;;;;;;;;;;;;;;7.81;50.94;97842.05;108092;1272;59716;-72
2021/11/13 07:58:52;;;;;;;;;;;;;;;7.74;52.71;97843.70;108241;1272;59669;-73
2021/11/13 08:01:21;;;;;;;;;;;;;;;8.12;51.86;97847.66;108228;1269;71777;-73
2021/11/13 08:03:50;;;;;;;;;;;;;;;8.32;51.93;97848.45;108104;1272;68124;-73
2021/11/13 08:06:20;;;;;;;;;;;;;;;8.33;51.95;97844.56;108017;1272;68665;-71
2021/11/13 08:08:49;;;;;;;;;;;;;;;8.82;50.46;97838.45;108157;1271;59798;-71
2021/11/13 08:11:18;;;;;;;;;;;;;;;9.56;50.93;97834.36;108143;1271;59719;-71
2021/11/13 08:13:47;;;;;;;;;;;;;;;9.84;48.25;97832.08;108148;1271;71509;-72
2021/11/13 08:16:17;;;;;;;;;;;;;;;9.73;48.02;97838.61;108150;1272;68588;-72
2021/11/13 08:18:46;;;;;;;;;;;;;;;9.54;48.58;97833.23;108108;1272;69544;-73
2021/11/13 08:21:15;;;;;;;;;;;;;;;9.76;49.87;97832.39;108099;1271;59669;-74
2021/11/13 08:23:46;;;;;;;;;;;;;;;9.97;48.74;97833.33;108131;1272;59783;-76
2021/11/13 08:26:15;;;;;;;;;;;;;;;9.07;49.69;97832.22;108163;1272;71576;-75
2021/11/13 08:28:44;;;;;;;;;;;;;;;9.17;49.51;97830.60;108160;1269;67628;-73
2021/11/13 08:31:12;;;;;;;;;;;;;;;8.98;50.03;97835.58;108045;1269;70094;-73
2021/11/13 08:33:41;;;;;;;;;;;;;;;9.05;50.51;97839.52;108208;1272;59723;-72
2021/11/13 08:36:11;;;;;;;;;;;;;;;8.93;50.65;97841.59;107911;1274;59749;-74
2021/11/13 08:38:41;;;;;;;;;;;;;;;8.01;52.74;97838.73;108164;1270;72231;-72
2021/11/13 08:41:09;;;;;;;;;;;;;;;8.28;53.50;97839.09;108103;1272;67632;-73
2021/11/13 08:43:38;;;;;;;;;;;;;;;9.63;51.29;97836.17;108291;1269;69201;-73
2021/11/13 08:46:07;;;;;;;;;;;;;;;9.97;49.40;97837.46;107985;1274;59734;-73
2021/11/13 08:48:36;;;;;;;;;;;;;;;10.60;47.83;97836.70;108128;1271;59701;-73
2021/11/13 08:51:05;;;;;;;;;;;;;;;10.00;48.49;97836.42;108076;1272;71620;-74
2021/11/13 08:53:34;;;;;;;;;;;;;;;10.79;47.97;97838.08;108119;1272;68650;-74
2021/11/13 08:56:03;;;;;;;;;;;;;;;11.42;47.58;97835.20;108126;1272;68480;-74
2021/11/13 08:58:32;;;;;;;;;;;;;;;12.54;46.39;97837.85;108022;1272;59777;-74
2021/11/13 09:01:03;;;;;;;;;;;;;;;13.03;43.17;97826.47;107998;1272;59709;-73
2021/11/13 09:03:37;;;;;;;;;;;;;;;13.07;41.64;97822.45;108139;1272;71610;-75
2021/11/13 09:06:09;;;;;;;;;;;;;;;13.47;42.95;97825.34;108128;1272;68662;-74
2021/11/13 09:08:38;;;;;;;;;;;;;;;13.24;41.35;97823.98;108199;1269;70830;-74
2021/11/13 09:11:08;;;;;;;;;;;;;;;13.56;41.28;97820.52;108060;1271;59786;-76
2021/11/13 09:13:37;;;;;;;;;;;;;;;13.15;42.01;97818.95;107964;1274;59637;-72
2021/11/13 09:16:08;;;;;;;;;;;;;;;12.59;42.54;97824.20;108116;1271;70822;-73
2021/11/13 09:18:42;;;;;;;;;;;;;;;12.87;42.27;97814.39;108095;1271;67663;-74
2021/11/13 09:21:11;;;;;;;;;;;;;;;13.40;41.74;97813.02;108038;1271;69438;-74
2021/11/13 09:23:40;;;;;;;;;;;;;;;14.21;41.95;97814.73;108131;1271;59744;-73
2021/11/13 09:26:10;;;;;;;;;;;;;;;15.08;39.46;97807.34;108037;1271;59655;-73
2021/11/13 09:28:40;;;;;;;;;;;;;;;15.53;38.58;97801.43;108070;1269;70690;-74
2021/11/13 09:31:08;;;;;;;;;;;;;;;16.29;39.33;97801.39;108073;1269;68520;-74
2021/11/13 09:33:37;;;;;;;;;;;;;;;17.00;35.95;97790.79;108089;1271;68874;-75
2021/11/13 09:36:06;;;;;;;;;;;;;;;15.14;36.35;97787.75;108024;1271;59777;-74
2021/11/13 09:38:37;;;;;;;;;;;;;;;14.65;37.37;97783.42;108099;1272;59719;-74
2021/11/13 09:41:06;;;;;;;;;;;;;;;13.88;38.69;97784.96;108113;1271;71732;-77
2021/11/13 09:43:36;;;;;;;;;;;;;;;14.06;38.98;97778.46;108100;1271;67642;-74
2021/11/13 09:46:07;;;;;;;;;;;;;;;13.63;39.17;97776.31;108037;1271;68654;-75
2021/11/13 09:48:36;;;;;;;;;;;;;;;14.09;39.28;97767.69;108099;1272;59748;-74
2021/11/13 09:51:05;;;;;;;;;;;;;;;15.40;38.58;97767.23;108068;1271;59738;-74
2021/11/13 09:53:34;;;;;;;;;;;;;;;16.60;37.14;97761.66;108132;1272;70546;-76
2021/11/13 09:56:05;;;;;;;;;;;;;;;17.12;34.09;97751.96;108116;1271;68036;-75
2021/11/13 09:58:34;;;;;;;;;;;;;;;16.93;34.52;97749.02;108081;1272;69104;-74
2021/11/13 10:01:03;;;;;;;;;;;;;;;15.76;35.75;97747.46;107954;1274;59761;-75
2021/11/13 10:03:32;;;;;;;;;;;;;;;16.73;35.69;97743.92;108100;1275;59713;-75
2021/11/13 10:06:02;;;;;;;;;;;;;;;16.67;35.28;97744.27;108093;1271;70056;-74
2021/11/13 10:08:31;;;;;;;;;;;;;;;17.19;34.19;97741.67;108165;1272;69017;-74
2021/11/13 10:11:05;;;;;;;;;;;;;;;16.14;35.96;97743.33;108071;1272;69413;-75
2021/11/13 10:14:03;;;;;;;;;;;;;;;15.10;37.98;97739.15;108098;1272;59709;-75
2021/11/13 10:16:40;;;;;;;;;;;;;;;14.69;39.01;97734.03;108016;1272;59687;-75
2021/11/13 10:19:11;;;;;;;;;;;;;;;14.66;39.11;97730.73;107974;1274;71842;-76
2021/11/13 10:21:41;;;;;;;;;;;;;;;15.50;37.67;97729.53;108069;1272;67838;-74
2021/11/13 10:24:11;;;;;;;;;;;;;;;13.76;40.08;97733.07;107980;1271;69386;-75
2021/11/13 10:26:42;;;;;;;;;;;;;;;14.01;39.99;97728.73;108124;1271;59709;-75
2021/11/13 10:29:16;;;;;;;;;;;;;;;14.85;38.84;97723.89;108011;1271;59691;-74
2021/11/13 10:31:46;;;;;;;;;;;;;;;14.55;38.68;97722.73;108057;1271;71811;-74
2021/11/13 10:34:21;;;;;;;;;;;;;;;14.55;38.47;97716.80;107872;1274;68741;-74
2021/11/13 10:36:51;;;;;;;;;;;;;;;15.35;37.38;97716.77;108079;1272;69067;-74
2021/11/13 10:39:21;;;;;;;;;;;;;;;14.52;38.79;97708.06;108115;1272;59712;-74
2021/11/13 10:41:52;;;;;;;;;;;;;;;13.55;40.96;97706.20;108125;1272;59691;-74
2021/11/13 10:44:25;;;;;;;;;;;;;;;14.27;39.88;97706.99;108038;1271;70777;-75
2021/11/13 10:46:54;;;;;;;;;;;;;;;12.60;43.33;97706.08;108081;1271;68613;-75
2021/11/13 10:49:25;;;;;;;;;;;;;;;12.45;44.37;97704.91;107967;1272;69275;-75
2021/11/13 10:51:59;;;;;;;;;;;;;;;13.51;42.38;97705.14;108124;1272;59726;-74
2021/11/13 10:54:29;;;;;;;;;;;;;;;12.74;43.45;97704.88;108121;1272;59723;-74
2021/11/13 10:56:59;;;;;;;;;;;;;;;12.47;44.61;97706.71;108108;1272;71435;-74
2021/11/13 10:59:30;;;;;;;;;;;;;;;11.27;48.07;97709.73;108020;1272;67152;-74
2021/11/13 11:02:00;;;;;;;;;;;;;;;12.44;45.49;97703.64;108023;1274;69311;-75
2021/11/13 11:04:31;;;;;;;;;;;;;;;13.68;42.93;97699.84;108090;1272;59731;-75
2021/11/13 11:07:05;;;;;;;;;;;;;;;13.98;41.47;97698.35;108136;1271;59712;-76
2021/11/13 11:09:39;;;;;;;;;;;;;;;13.34;43.06;97696.55;108049;1271;70836;-75
2021/11/13 11:12:12;;;;;;;;;;;;;;;14.35;41.33;97697.41;108005;1272;67724;-76
2021/11/13 11:14:43;;;;;;;;;;;;;;;14.33;41.49;97699.67;108054;1271;68750;-74
2021/11/13 11:17:14;;;;;;;;;;;;;;;13.83;43.23;97699.88;108083;1272;59722;-74
2021/11/13 11:19:47;;;;;;;;;;;;;;;14.66;41.44;97700.42;108112;1272;59776;-75
2021/11/13 11:22:16;;;;;;;;;;;;;;;15.20;40.31;97695.27;108129;1272;71668;-73
2021/11/13 11:24:51;;;;;;;;;;;;;;;15.04;40.46;97698.19;107993;1272;68165;-74
2021/11/13 11:27:25;;;;;;;;;;;;;;;15.29;40.18;97693.90;108023;1272;69402;-75
2021/11/13 11:30:00;;;;;;;;;;;;;;;16.82;37.74;97688.38;108036;1272;59680;-75
2021/11/13 11:32:37;;;;;;;;;;;;;;;17.58;35.90;97692.91;107995;1274;60201;-77
2021/11/13 11:35:08;;;;;;;;;;;;;;;16.73;37.48;97694.59;108161;1273;72119;-74
2021/11/13 11:37:38;;;;;;;;;;;;;;;17.05;37.02;97693.58;108131;1272;68752;-74
2021/11/13 11:40:14;;;;;;;;;;;;;;;15.66;38.94;97697.68;107970;1274;70022;-75
2021/11/13 11:42:44;;;;;;;;;;;;;;;16.51;37.68;97689.36;108056;1272;59690;-76
2021/11/13 11:45:14;;;;;;;;;;;;;;;16.72;36.93;97684.31;108064;1271;59766;-74
2021/11/13 11:47:43;;;;;;;;;;;;;;;17.25;36.08;97684.13;107983;1275;70796;-74
2021/11/13 11:50:13;;;;;;;;;;;;;;;17.48;35.75;97685.79;108065;1271;68595;-75
2021/11/13 11:52:44;;;;;;;;;;;;;;;17.35;35.81;97681.48;108201;1269;69417;-75
2021/11/13 11:55:13;;;;;;;;;;;;;;;16.87;36.85;97682.13;108152;1272;59799;-76
2021/11/13 11:57:43;;;;;;;;;;;;;;;17.35;35.51;97683.10;107947;1272;59709;-75
2021/11/13 12:00:17;;;;;;;;;;;;;;;16.77;36.12;97677.86;108029;1271;70994;-75
2021/11/13 12:02:50;;;;;;;;;;;;;;;16.34;35.77;97682.17;108103;1271;69491;-76
2021/11/13 12:05:21;;;;;;;;;;;;;;;17.10;35.49;97678.24;108167;1274;69315;-75
2021/11/13 12:07:53;;;;;;;;;;;;;;;18.09;32.79;97681.95;107965;1275;59703;-77
2021/11/13 12:10:22;;;;;;;;;;;;;;;16.94;34.56;97677.77;108035;1271;59731;-76
2021/11/13 12:13:14;;;;;;;;;;;;;;;15.53;37.25;97680.23;108020;1272;70830;-74
2021/11/13 12:15:46;;;;;;;;;;;;;;;16.52;35.84;97673.69;108028;1272;67929;-78
2021/11/13 12:18:35;;;;;;;;;;;;;;;16.54;35.35;97673.20;108071;1271;69498;-76
2021/11/13 12:21:04;;;;;;;;;;;;;;;17.01;35.21;97667.73;107997;1274;59767;-76
2021/11/13 12:23:35;;;;;;;;;;;;;;;16.48;35.71;97666.33;108128;1272;59770;-75
2021/11/13 12:26:12;;;;;;;;;;;;;;;16.10;36.41;97667.05;108127;1271;71664;-76
2021/11/13 12:28:44;;;;;;;;;;;;;;;15.74;37.42;97665.17;108134;1272;68691;-75
2021/11/13 12:31:21;;;;;;;;;;;;;;;16.35;36.52;97665.39;108082;1272;69099;-74
2021/11/13 12:34:20;;;;;;;;;;;;;;;14.30;39.93;97660.44;107982;1274;59714;-76
2021/11/13 12:36:57;;;;;;;;;;;;;;;15.44;38.36;97660.44;107974;1275;59757;-76
2021/11/13 12:39:27;;;;;;;;;;;;;;;16.12;36.97;97653.48;108051;1271;71598;-75
2021/11/13 12:42:02;;;;;;;;;;;;;;;16.93;35.57;97654.60;107969;1275;67865;-77
2021/11/13 12:44:34;;;;;;;;;;;;;;;17.57;34.58;97653.23;108066;1272;68625;-76
2021/11/13 12:47:08;;;;;;;;;;;;;;;17.24;35.12;97653.74;108010;1271;59713;-77
2021/11/13 12:49:43;;;;;;;;;;;;;;;17.31;34.99;97654.63;108043;1275;59646;-74
2021/11/13 12:52:38;;;;;;;;;;;;;;;16.83;35.96;97654.61;108121;1272;71608;-74
2021/11/13 12:55:23;;;;;;;;;;;;;;;16.12;37.60;97653.48;108078;1271;67852;-74